Airfield :
LOGIN :

Register | Disclaimer

   EN    FR    IT 

 










Legend :    VFR   Marginal VFR   IFR   Intensive IFR   Very Intensive IFR
Visi :
Ceiling :
>= 8 km
>= 3000ft
5 to 8 km
1000 to 3000 ft
1500m to 5 km
500 to 1000 ft
800 to 1500m
200 to 500 ft
< 800m
< 200 ft
Symbols :   Thunderstorms  Fog  Heavy snow  Heavy precipitations  Wind > 20 kt
SIGMETs :     Misc.  Thunderstorms  Icing  Turbulence  Mountain Waves  Volcanic Ashes







- Airport Elevation : 245 ft


ETHS - Fassberg

CURRENT METAR :
  • 170920Z 24007KT 9999 BKN250 16/12 Q1021 BLACKBLU+BLU+

EXPIRED METARs :
  • 170820Z 24007KT 9999 SCT120 BKN250 15/11 Q1021 BLACKBLU+BLU+
  • 170748Z 24007KT 9999 FEW023 BKN250 14/11 Q1021 BLACKBLU+BLU+ TEMPO WHT
  • 170720Z 24006KT 9999 BKN023 BKN250 13/11 Q1021 BLACKWHT BLU+ TEMPO WHT

TAF TAF ETHS
Valid from the 17 at 08:00 until the 17 at 17:00 UTC


170719Z 1708/1717 24007G20KT 9999 NSW FEW020 SCT230
TEMPO 1708/1709 25005KT 9999 NSW BKN020 BKN250
No reported NOTAMs for that airfield.



MET'MAP, your aeronautical weather chart ! - Copyright ORBIFLY December 2007 - Disclaimer

ORBIFLY MET'MAP TEAM :

Programming & Development : Alexandra Zaïnal
Concept & Development : Baudouin d'Aumeries
Co-Development & Prog : Marc-Olivier Méhu
Technical & hardware support : Manuel Goepfert

Contact : metmap@orbifly.com




SOURCES & CREDITS :

   NOAA